Time;durP1;ratioP1;P1;durP2;ratioP2;P2;SDS_P1;SDS_P2;PMS_P1;PMS_P2;Temp;Humidity;BMP_temperature;BMP_pressure;BME280_temperature;BME280_humidity;BME280_pressure;Samples;Min_cycle;Max_cycle;Signal;HPM_P1;HPM_P2
2024/01/20 00:02:14;;;;;;;27.90;22.55;;;0.30;99.90;;;;;;5126117;27;20039;-33
2024/01/20 00:04:40;;;;;;;31.48;23.67;;;0.20;99.90;;;;;;5127522;27;20045;-33
2024/01/20 00:07:05;;;;;;;49.03;32.63;;;0.10;99.90;;;;;;5123298;27;20031;-33
2024/01/20 00:09:31;;;;;;;41.97;28.17;;;0.20;99.90;;;;;;5129298;27;20494;-33
2024/01/20 00:11:57;;;;;;;32.80;24.98;;;0.20;99.90;;;;;;5115374;27;20542;-35
2024/01/20 00:14:23;;;;;;;37.78;27.00;;;0.10;99.90;;;;;;5125310;27;20084;-31
2024/01/20 00:16:49;;;;;;;41.28;27.55;;;0.10;99.90;;;;;;5124219;27;20035;-32
2024/01/20 00:19:15;;;;;;;44.47;29.77;;;0.10;99.90;;;;;;5119683;27;20035;-33
2024/01/20 00:21:41;;;;;;;36.72;23.88;;;0.00;99.90;;;;;;5118004;27;20110;-31
2024/01/20 00:24:07;;;;;;;43.45;27.90;;;0.00;99.90;;;;;;5124337;27;20039;-33
2024/01/20 00:26:33;;;;;;;38.13;27.05;;;0.00;99.90;;;;;;5131508;27;20039;-33
2024/01/20 00:28:59;;;;;;;33.00;24.25;;;0.00;99.90;;;;;;5126362;27;20403;-32
2024/01/20 00:31:24;;;;;;;30.80;24.15;;;0.00;99.90;;;;;;5132216;27;20051;-33
2024/01/20 00:33:51;;;;;;;34.13;24.75;;;-0.10;99.90;;;;;;5126548;27;20039;-34
2024/01/20 00:36:16;;;;;;;35.63;26.05;;;-0.10;99.90;;;;;;5120037;27;20551;-33
2024/01/20 00:38:42;;;;;;;33.95;25.88;;;-0.10;99.90;;;;;;5129510;27;20039;-33
2024/01/20 00:41:10;;;;;;;36.42;25.02;;;-0.10;99.90;;;;;;5122924;27;20059;-32
2024/01/20 00:43:36;;;;;;;33.40;25.88;;;-0.20;99.90;;;;;;5131456;27;20035;-33
2024/01/20 00:46:01;;;;;;;37.00;26.88;;;-0.10;99.90;;;;;;5106150;28;20448;-32
2024/01/20 00:48:27;;;;;;;34.35;25.17;;;-0.10;99.90;;;;;;5133232;27;20035;-32
2024/01/20 00:50:53;;;;;;;33.63;27.02;;;-0.10;99.90;;;;;;5106677;27;20038;-32
2024/01/20 00:53:18;;;;;;;34.50;26.15;;;-0.10;99.90;;;;;;5126397;27;20050;-33
2024/01/20 00:55:44;;;;;;;36.25;28.67;;;-0.10;99.90;;;;;;5110925;27;20506;-32
2024/01/20 00:58:10;;;;;;;39.70;29.58;;;-0.10;99.90;;;;;;5122991;27;20376;-32
2024/01/20 01:00:37;;;;;;;29.00;24.90;;;-0.10;99.90;;;;;;5124713;27;20031;-32
2024/01/20 01:03:03;;;;;;;37.15;27.35;;;-0.20;99.90;;;;;;5127760;27;20088;-31
2024/01/20 01:05:29;;;;;;;39.40;27.70;;;-0.10;99.90;;;;;;5130121;27;20035;-34
2024/01/20 01:07:56;;;;;;;35.08;26.17;;;-0.10;99.90;;;;;;5132813;27;20039;-31
2024/01/20 01:10:22;;;;;;;36.67;25.75;;;-0.20;99.90;;;;;;5121920;27;20043;-33
2024/01/20 01:12:49;;;;;;;31.73;25.83;;;-0.10;99.90;;;;;;5122755;27;20494;-32
2024/01/20 01:15:15;;;;;;;33.88;26.58;;;-0.20;99.90;;;;;;5128379;27;20039;-32
2024/01/20 01:17:41;;;;;;;32.60;26.55;;;-0.20;99.90;;;;;;5130188;27;20039;-33
2024/01/20 01:20:10;;;;;;;32.92;26.70;;;-0.20;99.90;;;;;;5126838;27;20551;-30
2024/01/20 01:22:36;;;;;;;39.05;27.13;;;-0.30;99.90;;;;;;5125679;27;20085;-32
2024/01/20 01:25:02;;;;;;;35.20;27.17;;;-0.30;99.90;;;;;;5128369;27;20062;-32
2024/01/20 01:27:28;;;;;;;40.70;28.30;;;-0.30;99.90;;;;;;5127606;27;20490;-32
2024/01/20 01:29:54;;;;;;;39.40;26.83;;;-0.30;99.90;;;;;;5125663;27;20394;-33
2024/01/20 01:32:20;;;;;;;33.80;26.50;;;-0.40;99.90;;;;;;5131399;27;20051;-34
2024/01/20 01:34:46;;;;;;;34.75;27.30;;;-0.40;99.90;;;;;;5129837;27;20064;-33
2024/01/20 01:37:11;;;;;;;39.47;29.25;;;-0.30;99.90;;;;;;5121548;27;20034;-35
2024/01/20 01:39:37;;;;;;;39.22;28.10;;;-0.40;99.90;;;;;;5130059;27;20031;-34
2024/01/20 01:42:03;;;;;;;35.10;28.08;;;-0.30;99.90;;;;;;5109812;27;20031;-31
2024/01/20 01:44:28;;;;;;;38.40;28.83;;;-0.30;99.90;;;;;;5126105;27;20032;-30
2024/01/20 01:46:55;;;;;;;37.67;27.73;;;-0.20;99.90;;;;;;5126814;27;20100;-34
2024/01/20 01:49:22;;;;;;;37.55;28.38;;;-0.30;99.90;;;;;;5124399;27;20062;-33
2024/01/20 01:51:50;;;;;;;36.88;27.17;;;-0.30;99.90;;;;;;5119583;27;20490;-32
2024/01/20 01:54:18;;;;;;;37.15;28.10;;;-0.20;99.90;;;;;;5120107;27;20072;-30
2024/01/20 01:56:46;;;;;;;37.88;27.75;;;-0.30;99.90;;;;;;5126143;28;20539;-33
2024/01/20 01:59:13;;;;;;;37.92;28.25;;;-0.30;99.90;;;;;;5112255;28;20079;-32
2024/01/20 02:01:38;;;;;;;38.88;29.27;;;-0.30;99.90;;;;;;5125352;28;20047;-33
2024/01/20 02:04:04;;;;;;;36.10;28.63;;;-0.30;99.90;;;;;;5128306;28;20039;-32
2024/01/20 02:06:30;;;;;;;35.80;28.45;;;-0.30;99.90;;;;;;5109785;28;20504;-32
2024/01/20 02:08:57;;;;;;;41.75;29.52;;;-0.30;99.90;;;;;;5108904;28;20054;-33
2024/01/20 02:11:23;;;;;;;38.58;30.40;;;-0.30;99.90;;;;;;5129625;28;20091;-34
2024/01/20 02:13:50;;;;;;;43.45;30.13;;;-0.30;99.90;;;;;;5123009;28;20502;-32
2024/01/20 02:16:16;;;;;;;38.35;29.38;;;-0.30;99.90;;;;;;5130004;28;20039;-32
2024/01/20 02:18:41;;;;;;;34.97;25.55;;;-0.30;99.90;;;;;;5106061;28;20089;-31
2024/01/20 02:21:07;;;;;;;41.22;30.92;;;-0.30;99.90;;;;;;5124664;28;20057;-33
2024/01/20 02:23:38;;;;;;;41.15;31.27;;;-0.30;99.90;;;;;;5129568;28;20058;-34
2024/01/20 02:26:05;;;;;;;43.53;31.30;;;-0.30;99.90;;;;;;5121576;28;20044;-32
2024/01/20 02:28:30;;;;;;;38.97;29.30;;;-0.30;99.90;;;;;;5104102;28;20039;-31
2024/01/20 02:30:56;;;;;;;41.50;31.45;;;-0.30;99.90;;;;;;5113862;28;20040;-32
2024/01/20 02:33:22;;;;;;;39.05;29.75;;;-0.30;99.90;;;;;;5114653;27;20096;-32
2024/01/20 02:35:47;;;;;;;38.40;29.88;;;-0.30;99.90;;;;;;5132965;27;20062;-34
2024/01/20 02:38:13;;;;;;;41.08;31.10;;;-0.30;99.90;;;;;;5135152;27;20088;-31
2024/01/20 02:40:39;;;;;;;42.65;28.42;;;-0.30;99.90;;;;;;5128651;27;20118;-31
2024/01/20 02:43:05;;;;;;;40.17;32.08;;;-0.40;99.90;;;;;;5133825;27;20035;-32
2024/01/20 02:45:31;;;;;;;42.97;30.55;;;-0.40;99.90;;;;;;5127421;27;20035;-31
2024/01/20 02:47:57;;;;;;;41.58;30.75;;;-0.40;99.90;;;;;;5136029;27;20438;-31
2024/01/20 02:50:23;;;;;;;38.08;29.67;;;-0.40;99.90;;;;;;5130831;27;20157;-37
2024/01/20 02:52:51;;;;;;;42.40;29.98;;;-0.40;99.90;;;;;;5131192;27;20039;-35
2024/01/20 02:55:17;;;;;;;41.42;31.25;;;-0.50;99.90;;;;;;5131424;27;20067;-33
2024/01/20 02:57:43;;;;;;;40.33;32.45;;;-0.50;99.90;;;;;;5131837;27;20521;-33
2024/01/20 03:00:09;;;;;;;45.42;33.35;;;-0.50;99.90;;;;;;5134184;27;20039;-32
2024/01/20 03:02:35;;;;;;;41.53;30.88;;;-0.50;99.90;;;;;;5132592;27;20031;-32
2024/01/20 03:05:01;;;;;;;41.05;30.45;;;-0.50;99.90;;;;;;5130207;27;20383;-32
2024/01/20 03:07:27;;;;;;;40.97;31.77;;;-0.60;99.90;;;;;;5126684;27;20418;-32
2024/01/20 03:09:53;;;;;;;43.10;31.80;;;-0.60;99.90;;;;;;5127306;27;20047;-33
2024/01/20 03:12:18;;;;;;;40.58;30.52;;;-0.60;99.90;;;;;;5132430;27;20036;-30
2024/01/20 03:14:44;;;;;;;41.33;30.88;;;-0.60;99.90;;;;;;5125907;27;20035;-33
2024/01/20 03:17:10;;;;;;;40.40;31.67;;;-0.60;99.90;;;;;;5128139;27;20080;-32
2024/01/20 03:19:36;;;;;;;44.78;31.42;;;-0.60;99.90;;;;;;5117665;27;20035;-33
2024/01/20 03:22:01;;;;;;;41.70;32.30;;;-0.60;99.90;;;;;;5129050;27;20043;-34
2024/01/20 03:24:27;;;;;;;44.33;31.52;;;-0.60;99.90;;;;;;5126369;27;20067;-32
2024/01/20 03:26:55;;;;;;;48.05;32.03;;;-0.60;99.90;;;;;;5114244;27;20122;-33
2024/01/20 03:29:21;;;;;;;41.95;31.63;;;-0.70;99.90;;;;;;5129978;27;20114;-33
2024/01/20 03:31:47;;;;;;;46.15;30.17;;;-0.60;99.90;;;;;;5134580;27;20043;-32
2024/01/20 03:34:13;;;;;;;45.97;31.30;;;-0.70;99.90;;;;;;5129407;27;20526;-32
2024/01/20 03:36:38;;;;;;;47.88;30.90;;;-0.70;99.90;;;;;;5129665;27;20126;-33
2024/01/20 03:39:04;;;;;;;43.97;30.58;;;-0.60;99.90;;;;;;5110361;27;20051;-33
2024/01/20 03:41:30;;;;;;;51.25;32.00;;;-0.70;99.90;;;;;;5132709;27;20073;-30
2024/01/20 03:43:56;;;;;;;46.63;31.50;;;-0.70;99.90;;;;;;5121623;27;20032;-33
2024/01/20 03:46:23;;;;;;;45.72;32.60;;;-0.70;99.90;;;;;;5125272;27;20043;-33
2024/01/20 03:48:49;;;;;;;42.63;31.08;;;-0.70;99.90;;;;;;5130668;27;20100;-32
2024/01/20 03:51:14;;;;;;;48.90;30.55;;;-0.70;99.90;;;;;;5123947;27;20122;-33
2024/01/20 03:53:40;;;;;;;43.78;28.65;;;-0.70;99.90;;;;;;5130239;27;20114;-35
2024/01/20 03:56:06;;;;;;;43.85;31.23;;;-0.70;99.90;;;;;;5112473;27;20176;-32
2024/01/20 03:58:32;;;;;;;45.58;29.38;;;-0.70;99.90;;;;;;5120107;27;20119;-32
2024/01/20 04:00:58;;;;;;;50.85;29.55;;;-0.70;99.90;;;;;;5129398;27;20498;-32
2024/01/20 04:03:24;;;;;;;45.67;29.15;;;-0.70;99.90;;;;;;5122286;27;20035;-32
2024/01/20 04:05:49;;;;;;;47.25;31.40;;;-0.80;99.90;;;;;;5126265;27;20616;-32
2024/01/20 04:08:15;;;;;;;52.38;31.20;;;-0.70;99.90;;;;;;5104708;27;20060;-34
2024/01/20 04:10:41;;;;;;;48.78;30.02;;;-0.70;99.90;;;;;;5127557;27;20040;-31
2024/01/20 04:13:07;;;;;;;49.30;30.75;;;-0.70;99.90;;;;;;5125777;27;20045;-34
2024/01/20 04:15:33;;;;;;;49.28;29.70;;;-0.70;99.90;;;;;;5123383;27;20019;-33
2024/01/20 04:17:58;;;;;;;50.88;31.25;;;-0.60;99.90;;;;;;5128428;27;20039;-32
2024/01/20 04:20:24;;;;;;;50.75;29.50;;;-0.60;99.90;;;;;;5126572;27;20516;-32
2024/01/20 04:22:50;;;;;;;52.92;30.08;;;-0.60;99.90;;;;;;5125613;27;20035;-31
2024/01/20 04:25:16;;;;;;;48.53;30.67;;;-0.60;99.90;;;;;;5115699;27;20046;-33
2024/01/20 04:27:42;;;;;;;51.03;29.88;;;-0.60;99.90;;;;;;5122090;27;20052;-32
2024/01/20 04:30:11;;;;;;;59.22;31.20;;;-0.70;99.90;;;;;;5126521;27;20042;-34
2024/01/20 04:32:37;;;;;;;51.65;29.20;;;-0.80;99.90;;;;;;5124866;27;20043;-34
2024/01/20 04:35:04;;;;;;;55.25;31.38;;;-0.80;99.90;;;;;;5127401;27;20379;-31
2024/01/20 04:37:30;;;;;;;54.95;30.17;;;-0.80;99.90;;;;;;5132304;27;20107;-33
2024/01/20 04:39:56;;;;;;;49.95;29.27;;;-0.80;99.90;;;;;;5121977;27;20117;-31
2024/01/20 04:42:22;;;;;;;55.38;30.63;;;-0.80;99.90;;;;;;5133252;27;20557;-32
2024/01/20 04:44:48;;;;;;;50.78;27.40;;;-0.90;99.90;;;;;;5115407;27;20448;-32
2024/01/20 04:47:13;;;;;;;53.55;28.85;;;-0.90;99.90;;;;;;5127103;27;20055;-33
2024/01/20 04:49:39;;;;;;;57.25;31.45;;;-1.00;99.90;;;;;;5123302;27;20517;-31
2024/01/20 04:52:05;;;;;;;53.95;29.77;;;-1.00;99.90;;;;;;5127338;27;20566;-32
2024/01/20 04:54:31;;;;;;;49.75;27.92;;;-1.00;99.90;;;;;;5128101;27;20039;-32
2024/01/20 04:56:57;;;;;;;63.47;31.40;;;-1.00;99.90;;;;;;5113568;27;20035;-32
2024/01/20 04:59:24;;;;;;;55.85;31.02;;;-1.00;99.90;;;;;;5126285;27;20039;-33
2024/01/20 05:01:49;;;;;;;55.22;28.30;;;-1.10;99.90;;;;;;5120016;27;20499;-33
2024/01/20 05:04:15;;;;;;;59.85;29.60;;;-1.00;99.90;;;;;;5119493;27;20051;-33
2024/01/20 05:06:45;;;;;;;61.85;30.95;;;-1.00;99.90;;;;;;5123821;27;20028;-32
2024/01/20 05:09:12;;;;;;;58.92;29.52;;;-1.10;99.90;;;;;;5128288;27;20403;-31
2024/01/20 05:11:38;;;;;;;60.47;31.08;;;-1.10;99.90;;;;;;5126529;27;20043;-32
2024/01/20 05:14:04;;;;;;;62.63;31.13;;;-1.10;99.90;;;;;;5131617;27;20398;-32
2024/01/20 05:16:29;;;;;;;57.97;28.85;;;-1.10;99.90;;;;;;5127496;27;20065;-32
2024/01/20 05:18:55;;;;;;;60.90;30.85;;;-1.10;99.90;;;;;;5114190;27;20513;-32
2024/01/20 05:21:22;;;;;;;60.58;31.15;;;-1.20;99.90;;;;;;5129913;27;20206;-34
2024/01/20 05:23:48;;;;;;;61.67;32.28;;;-1.20;99.90;;;;;;5116512;27;20035;-35
2024/01/20 05:26:14;;;;;;;62.03;31.48;;;-1.20;99.90;;;;;;5128777;27;20593;-35
2024/01/20 05:28:41;;;;;;;63.83;31.92;;;-1.20;99.90;;;;;;5120073;27;20035;-35
2024/01/20 05:31:07;;;;;;;64.88;32.08;;;-1.30;99.90;;;;;;5113161;27;20502;-34
2024/01/20 05:33:33;;;;;;;55.38;31.20;;;-1.30;99.90;;;;;;5123309;27;20039;-34
2024/01/20 05:35:59;;;;;;;55.30;30.92;;;-1.30;99.90;;;;;;5131915;27;20138;-35
2024/01/20 05:38:24;;;;;;;59.20;31.70;;;-1.30;99.90;;;;;;5126367;27;20047;-33
2024/01/20 05:40:50;;;;;;;60.40;29.83;;;-1.30;99.90;;;;;;5125956;27;20043;-34
2024/01/20 05:43:16;;;;;;;59.17;29.45;;;-1.30;99.90;;;;;;5118249;27;20023;-34
2024/01/20 05:45:42;;;;;;;63.20;31.40;;;-1.30;99.90;;;;;;5097539;27;20136;-34
2024/01/20 05:48:10;;;;;;;59.55;30.17;;;-1.30;99.90;;;;;;5116746;27;20468;-33
2024/01/20 05:50:35;;;;;;;57.40;29.38;;;-1.30;99.90;;;;;;5121744;27;20038;-33
2024/01/20 05:53:03;;;;;;;57.40;30.17;;;-1.30;99.90;;;;;;5121869;27;20042;-34
2024/01/20 05:55:29;;;;;;;62.97;30.90;;;-1.30;99.90;;;;;;5116021;28;20114;-34
2024/01/20 05:57:55;;;;;;;62.72;33.42;;;-1.20;99.90;;;;;;5106008;28;20487;-34
2024/01/20 06:00:22;;;;;;;62.53;33.72;;;-1.20;99.90;;;;;;5123513;28;20028;-33
2024/01/20 06:02:48;;;;;;;61.85;31.67;;;-1.20;99.90;;;;;;5120036;28;20070;-34
2024/01/20 06:05:13;;;;;;;61.85;32.00;;;-1.30;99.90;;;;;;5125435;28;20031;-34
2024/01/20 06:07:39;;;;;;;61.03;29.52;;;-1.20;99.90;;;;;;5127302;27;20039;-33
2024/01/20 06:10:05;;;;;;;58.30;29.67;;;-1.20;99.90;;;;;;5129355;27;20067;-34
2024/01/20 06:12:31;;;;;;;61.17;31.02;;;-1.20;99.90;;;;;;5130062;27;20031;-34
2024/01/20 06:14:57;;;;;;;54.75;28.70;;;-1.20;99.90;;;;;;5127524;27;20062;-34
2024/01/20 06:17:23;;;;;;;58.33;29.90;;;-1.20;99.90;;;;;;5128190;27;20039;-31
2024/01/20 06:19:48;;;;;;;57.28;29.85;;;-1.20;99.90;;;;;;5129474;27;20043;-31
2024/01/20 06:22:14;;;;;;;60.22;30.48;;;-1.20;99.90;;;;;;5129305;27;20076;-32
2024/01/20 06:24:40;;;;;;;53.88;28.65;;;-1.30;99.90;;;;;;5128714;27;20070;-32
2024/01/20 06:27:06;;;;;;;55.22;28.65;;;-1.30;99.90;;;;;;5123008;27;20375;-32
2024/01/20 06:29:31;;;;;;;54.38;27.48;;;-1.30;99.90;;;;;;5114847;27;20509;-32
2024/01/20 06:31:57;;;;;;;54.03;28.63;;;-1.30;99.90;;;;;;5130115;27;20043;-31
2024/01/20 06:34:23;;;;;;;56.22;28.45;;;-1.30;99.90;;;;;;5134965;27;20043;-32
2024/01/20 06:36:49;;;;;;;55.40;27.67;;;-1.20;99.90;;;;;;5127714;27;20442;-31
2024/01/20 06:39:14;;;;;;;53.63;27.35;;;-1.30;99.90;;;;;;5120476;27;20036;-33
2024/01/20 06:41:41;;;;;;;50.95;26.73;;;-1.30;99.90;;;;;;5122690;27;20032;-31
2024/01/20 06:44:07;;;;;;;50.63;28.48;;;-1.30;99.90;;;;;;5127419;27;20046;-31
2024/01/20 06:46:32;;;;;;;55.25;28.50;;;-1.30;99.90;;;;;;5118978;27;20120;-30
2024/01/20 06:48:58;;;;;;;53.08;27.33;;;-1.30;99.90;;;;;;5127571;27;20126;-33
2024/01/20 06:51:26;;;;;;;53.67;26.70;;;-1.30;99.90;;;;;;5126229;27;20043;-35
2024/01/20 06:53:57;;;;;;;51.97;26.73;;;-1.40;99.90;;;;;;5134560;27;20051;-32
2024/01/20 06:56:24;;;;;;;50.78;25.83;;;-1.30;99.90;;;;;;5123881;27;20138;-34
2024/01/20 06:58:51;;;;;;;50.80;26.45;;;-1.30;99.90;;;;;;5125220;27;20429;-32
2024/01/20 07:01:17;;;;;;;50.78;26.88;;;-1.30;99.90;;;;;;5128933;27;20557;-34
2024/01/20 07:03:43;;;;;;;52.38;26.23;;;-1.30;99.90;;;;;;5118833;27;20129;-33
2024/01/20 07:06:08;;;;;;;52.75;24.85;;;-1.30;99.90;;;;;;5127361;27;20444;-36
2024/01/20 07:08:34;;;;;;;54.67;27.38;;;-1.30;99.90;;;;;;5128420;27;20397;-35
2024/01/20 07:11:00;;;;;;;49.53;25.95;;;-1.20;99.90;;;;;;5109191;27;20031;-36
2024/01/20 07:13:26;;;;;;;50.22;25.02;;;-1.20;99.90;;;;;;5125841;27;20074;-35
2024/01/20 07:15:51;;;;;;;50.97;25.52;;;-1.30;99.90;;;;;;5122120;27;20226;-32
2024/01/20 07:18:17;;;;;;;52.38;26.42;;;-1.20;99.90;;;;;;5112376;27;20494;-33
2024/01/20 07:20:44;;;;;;;50.88;25.02;;;-1.20;99.90;;;;;;5125980;27;20486;-34
2024/01/20 07:23:10;;;;;;;50.63;25.67;;;-1.20;99.90;;;;;;5116318;27;20035;-35
2024/01/20 07:25:36;;;;;;;50.50;25.52;;;-1.20;99.90;;;;;;5124806;27;20034;-31
2024/01/20 07:28:04;;;;;;;58.78;26.90;;;-1.30;99.90;;;;;;5101460;28;20529;-30
2024/01/20 07:30:30;;;;;;;53.15;25.92;;;-1.20;99.90;;;;;;5121637;27;20075;-30
2024/01/20 07:32:58;;;;;;;50.90;25.27;;;-1.20;99.90;;;;;;5114308;27;20131;-30
2024/01/20 07:35:24;;;;;;;51.28;25.42;;;-1.20;99.90;;;;;;5117872;27;20035;-30
2024/01/20 07:37:50;;;;;;;52.55;26.58;;;-1.20;99.90;;;;;;5097657;27;20420;-30
2024/01/20 07:40:17;;;;;;;53.50;25.40;;;-1.10;99.90;;;;;;5116796;27;20031;-31
2024/01/20 07:42:43;;;;;;;50.47;25.65;;;-1.10;99.90;;;;;;5099757;27;20040;-31
2024/01/20 07:45:09;;;;;;;55.35;26.80;;;-1.10;99.90;;;;;;5113887;27;20043;-31
2024/01/20 07:47:35;;;;;;;52.00;27.00;;;-1.10;99.90;;;;;;5118377;27;20035;-31
2024/01/20 07:50:01;;;;;;;52.53;25.90;;;-1.10;99.90;;;;;;5112276;27;20039;-31
2024/01/20 07:52:26;;;;;;;48.00;25.10;;;-1.10;99.90;;;;;;5117348;27;20057;-31
2024/01/20 07:54:52;;;;;;;45.50;24.58;;;-1.10;99.90;;;;;;5108004;27;20434;-30
2024/01/20 07:57:18;;;;;;;51.83;26.63;;;-1.10;99.90;;;;;;5121922;27;20034;-30
2024/01/20 07:59:43;;;;;;;53.35;25.80;;;-1.00;99.90;;;;;;5116648;27;20043;-29
2024/01/20 08:02:09;;;;;;;50.53;26.20;;;-1.00;99.90;;;;;;5097671;28;20514;-32
2024/01/20 08:04:35;;;;;;;53.22;26.40;;;-1.00;99.90;;;;;;5117486;27;20088;-31
2024/01/20 08:07:01;;;;;;;54.08;24.77;;;-0.90;99.90;;;;;;5123803;27;20031;-32
2024/01/20 08:09:26;;;;;;;51.30;26.65;;;-0.90;99.90;;;;;;5124184;27;20043;-32
2024/01/20 08:11:52;;;;;;;49.17;25.27;;;-0.80;99.90;;;;;;5114526;27;20083;-32
2024/01/20 08:14:18;;;;;;;54.10;27.73;;;-0.80;99.90;;;;;;5125478;27;20100;-32
2024/01/20 08:16:44;;;;;;;50.58;24.70;;;-0.70;99.90;;;;;;5119808;27;20088;-32
2024/01/20 08:19:09;;;;;;;53.38;25.45;;;-0.70;99.90;;;;;;5115606;27;20032;-36
2024/01/20 08:21:35;;;;;;;53.90;25.90;;;-0.60;99.90;;;;;;5110880;27;20125;-33
2024/01/20 08:24:01;;;;;;;52.03;24.27;;;-0.50;99.90;;;;;;5102695;27;20036;-31
2024/01/20 08:26:26;;;;;;;48.42;24.98;;;-0.40;99.90;;;;;;5105652;27;20031;-31
2024/01/20 08:28:52;;;;;;;46.83;23.77;;;-0.40;99.90;;;;;;5108216;27;20054;-32
2024/01/20 08:31:18;;;;;;;50.40;25.35;;;-0.30;99.90;;;;;;5075167;28;20257;-33
2024/01/20 08:33:44;;;;;;;46.70;24.77;;;-0.20;99.90;;;;;;5062881;28;20056;-31
2024/01/20 08:36:10;;;;;;;45.58;23.77;;;-0.10;99.90;;;;;;5074768;28;20384;-31
2024/01/20 08:38:36;;;;;;;44.72;23.33;;;0.00;99.90;;;;;;5073849;28;20476;-32
2024/01/20 08:41:11;;;;;;;50.95;25.30;;;0.20;99.90;;;;;;5082459;28;20036;-32
2024/01/20 08:43:41;;;;;;;42.63;23.30;;;0.40;99.90;;;;;;5065442;28;20037;-32
2024/01/20 08:46:07;;;;;;;40.85;22.25;;;0.80;99.90;;;;;;5075206;28;20033;-33
2024/01/20 08:48:33;;;;;;;38.53;21.83;;;1.10;99.90;;;;;;5080821;28;20094;-31
2024/01/20 08:50:59;;;;;;;39.35;21.10;;;1.20;99.90;;;;;;5074818;28;20040;-32
2024/01/20 08:53:27;;;;;;;37.75;21.65;;;1.30;99.90;;;;;;5079537;28;20442;-30
2024/01/20 08:55:53;;;;;;;35.25;20.00;;;1.30;99.90;;;;;;5083930;28;20083;-33
2024/01/20 08:58:18;;;;;;;38.00;21.27;;;1.30;99.90;;;;;;5080863;28;20496;-33
2024/01/20 09:00:44;;;;;;;36.63;20.98;;;1.30;99.90;;;;;;5070137;28;20408;-31
2024/01/20 09:03:10;;;;;;;44.40;22.73;;;1.40;99.90;;;;;;5080001;28;20040;-32
2024/01/20 09:05:35;;;;;;;40.15;21.88;;;1.50;99.90;;;;;;5072452;28;20369;-33
2024/01/20 09:08:02;;;;;;;40.63;23.55;;;1.40;99.90;;;;;;5076592;28;20040;-32
2024/01/20 09:10:28;;;;;;;43.20;22.90;;;1.20;99.90;;;;;;5076714;28;20044;-31
2024/01/20 09:12:54;;;;;;;41.95;21.63;;;1.20;99.90;;;;;;5079715;28;20036;-31
2024/01/20 09:15:20;;;;;;;37.95;21.70;;;1.10;99.90;;;;;;5074662;28;20041;-30
2024/01/20 09:17:46;;;;;;;33.63;19.67;;;1.10;99.90;;;;;;5089923;28;20491;-32
2024/01/20 09:20:11;;;;;;;42.05;23.00;;;1.00;99.90;;;;;;5082925;28;20111;-33
2024/01/20 09:22:37;;;;;;;48.20;26.20;;;1.00;99.90;;;;;;5083145;28;20043;-31
2024/01/20 09:25:03;;;;;;;49.40;24.90;;;1.10;99.90;;;;;;5079742;28;20035;-33
2024/01/20 09:27:29;;;;;;;41.95;23.33;;;1.00;99.90;;;;;;5081109;28;20071;-35
2024/01/20 09:29:56;;;;;;;43.90;23.05;;;1.10;99.90;;;;;;5074671;28;20056;-31
2024/01/20 09:32:22;;;;;;;52.03;25.73;;;1.10;99.90;;;;;;5079747;28;20526;-31
2024/01/20 09:34:47;;;;;;;49.88;26.92;;;1.10;99.90;;;;;;5078861;28;20036;-31
2024/01/20 09:37:13;;;;;;;59.88;31.20;;;1.20;99.90;;;;;;5086626;28;20036;-33
2024/01/20 09:39:39;;;;;;;42.33;23.23;;;1.20;99.90;;;;;;5073859;28;20047;-31
2024/01/20 09:42:05;;;;;;;45.40;24.52;;;1.20;99.90;;;;;;5080394;28;20040;-30
2024/01/20 09:44:31;;;;;;;45.15;24.80;;;1.30;99.90;;;;;;5077656;28;20114;-33
2024/01/20 09:46:57;;;;;;;36.17;19.80;;;1.30;99.90;;;;;;5083572;28;20542;-32
2024/01/20 09:49:23;;;;;;;38.45;20.42;;;1.40;99.90;;;;;;5080508;28;20507;-32
2024/01/20 09:51:53;;;;;;;35.45;20.77;;;1.40;99.90;;;;;;5077681;28;20109;-31
2024/01/20 09:54:21;;;;;;;34.78;19.70;;;1.50;99.90;;;;;;5089910;28;20050;-32
2024/01/20 09:56:47;;;;;;;34.85;19.98;;;1.70;99.90;;;;;;5079249;28;20036;-33
2024/01/20 09:59:14;;;;;;;34.92;20.02;;;1.70;99.90;;;;;;5082418;28;20054;-34
2024/01/20 10:01:41;;;;;;;33.55;19.52;;;1.90;99.90;;;;;;5083079;28;20473;-33
2024/01/20 10:04:08;;;;;;;32.38;19.67;;;2.00;99.90;;;;;;5081396;28;20480;-32
2024/01/20 10:06:34;;;;;;;35.30;20.20;;;2.20;99.90;;;;;;5069333;28;20071;-32
2024/01/20 10:09:00;;;;;;;32.55;21.67;;;2.20;99.90;;;;;;5089343;28;20063;-32
2024/01/20 10:11:26;;;;;;;31.95;19.15;;;2.20;99.90;;;;;;5084418;28;20035;-33
2024/01/20 10:13:52;;;;;;;31.98;17.50;;;2.10;99.90;;;;;;5090113;28;20098;-32
2024/01/20 10:16:19;;;;;;;30.35;17.80;;;2.10;99.90;;;;;;5074997;28;20040;-31
2024/01/20 10:18:45;;;;;;;33.65;17.85;;;2.00;99.90;;;;;;5088306;28;20519;-34
2024/01/20 10:21:11;;;;;;;33.60;18.27;;;2.00;99.90;;;;;;5085019;28;20032;-35
2024/01/20 10:23:39;;;;;;;29.15;17.20;;;2.00;99.90;;;;;;5087636;28;20029;-35
2024/01/20 10:26:06;;;;;;;34.15;18.35;;;2.00;99.90;;;;;;5082555;28;20069;-34
2024/01/20 10:28:33;;;;;;;29.48;18.15;;;2.00;99.90;;;;;;5084627;28;20048;-35
2024/01/20 10:31:06;;;;;;;28.52;17.38;;;2.00;99.90;;;;;;5089859;28;20055;-34
2024/01/20 10:33:31;;;;;;;47.95;28.52;;;2.10;99.90;;;;;;5082792;28;20579;-36
2024/01/20 10:35:59;;;;;;;40.80;22.45;;;2.10;99.90;;;;;;5085172;28;20111;-36
2024/01/20 10:38:28;;;;;;;30.17;17.13;;;2.10;99.90;;;;;;5081549;28;20048;-35
2024/01/20 10:40:57;;;;;;;30.73;17.90;;;2.10;99.90;;;;;;5080478;28;20036;-36
2024/01/20 10:43:27;;;;;;;29.48;17.73;;;2.20;99.90;;;;;;5078292;28;20052;-36
2024/01/20 10:46:15;;;;;;;29.33;16.30;;;2.20;99.90;;;;;;5082132;28;20432;-36
2024/01/20 10:48:45;;;;;;;28.38;15.85;;;2.30;99.90;;;;;;5083650;28;20202;-35
2024/01/20 10:51:14;;;;;;;27.98;15.93;;;2.30;99.90;;;;;;5081973;28;20052;-36
2024/01/20 10:53:41;;;;;;;31.27;17.15;;;2.40;99.90;;;;;;5087790;28;20387;-36
2024/01/20 10:56:08;;;;;;;27.83;17.42;;;2.40;99.90;;;;;;5091059;28;20122;-35
2024/01/20 10:58:46;;;;;;;26.88;16.13;;;2.50;99.90;;;;;;5092696;28;20128;-35
2024/01/20 11:01:12;;;;;;;27.13;15.90;;;2.50;99.90;;;;;;5087720;28;20519;-35
2024/01/20 11:03:38;;;;;;;29.88;16.55;;;2.50;99.90;;;;;;5089560;28;20518;-36
2024/01/20 11:06:04;;;;;;;27.42;15.48;;;2.50;99.90;;;;;;5090409;28;20074;-35
2024/01/20 11:08:31;;;;;;;27.38;15.82;;;2.60;99.90;;;;;;5087221;28;20036;-36
2024/01/20 11:10:57;;;;;;;27.90;16.55;;;2.60;99.90;;;;;;5086889;28;20036;-35
2024/01/20 11:13:26;;;;;;;27.48;16.52;;;2.60;99.90;;;;;;5086561;28;20047;-35
2024/01/20 11:15:52;;;;;;;24.83;16.17;;;2.60;99.90;;;;;;5085422;28;20062;-35
2024/01/20 11:18:22;;;;;;;26.30;14.43;;;2.60;99.90;;;;;;5089992;28;20100;-36
2024/01/20 11:21:02;;;;;;;25.50;15.20;;;2.60;99.90;;;;;;5088505;28;20044;-35
2024/01/20 11:23:28;;;;;;;34.28;18.63;;;2.70;99.90;;;;;;5087676;28;20462;-36
2024/01/20 11:25:55;;;;;;;37.88;25.77;;;2.70;99.90;;;;;;5085589;28;20044;-35
2024/01/20 11:28:25;;;;;;;31.33;18.33;;;2.70;99.90;;;;;;5081612;28;20123;-36
2024/01/20 11:30:51;;;;;;;24.52;14.98;;;2.70;99.90;;;;;;5088722;28;20596;-36
2024/01/20 11:33:17;;;;;;;29.73;19.20;;;2.60;99.90;;;;;;5083771;28;20036;-40
2024/01/20 11:35:43;;;;;;;25.70;15.65;;;2.60;99.90;;;;;;5089027;28;20490;-35
2024/01/20 11:38:09;;;;;;;26.92;16.73;;;2.60;99.90;;;;;;5084717;28;20133;-35
2024/01/20 11:40:35;;;;;;;25.70;15.32;;;2.60;99.90;;;;;;5091646;28;20040;-36
2024/01/20 11:43:08;;;;;;;25.02;15.02;;;2.60;99.90;;;;;;5089818;28;20043;-33
2024/01/20 11:45:33;;;;;;;24.67;15.32;;;2.60;99.90;;;;;;5086520;28;20036;-33
2024/01/20 11:47:59;;;;;;;29.27;15.88;;;2.50;99.90;;;;;;5086195;28;20411;-32
2024/01/20 11:50:25;;;;;;;25.88;15.77;;;2.60;99.90;;;;;;5088519;28;20032;-33
2024/01/20 11:52:51;;;;;;;29.15;16.85;;;2.50;99.90;;;;;;5085899;28;20047;-34
2024/01/20 11:55:17;;;;;;;27.95;16.80;;;2.50;99.90;;;;;;5085925;28;20036;-33
2024/01/20 11:57:43;;;;;;;24.42;15.10;;;2.50;99.90;;;;;;5091332;28;20070;-33
2024/01/20 12:00:11;;;;;;;29.83;16.67;;;2.50;99.90;;;;;;5086494;28;20510;-33
2024/01/20 12:02:37;;;;;;;29.27;16.73;;;2.50;99.90;;;;;;5090456;28;20105;-33
2024/01/20 12:05:03;;;;;;;26.15;16.90;;;2.50;99.90;;;;;;5082885;28;20040;-33
2024/01/20 12:07:29;;;;;;;27.45;16.65;;;2.60;99.90;;;;;;5081877;28;20522;-33
2024/01/20 12:09:56;;;;;;;27.55;15.60;;;2.60;99.90;;;;;;5080466;28;20090;-34
2024/01/20 12:12:22;;;;;;;29.10;15.57;;;2.60;99.90;;;;;;5089667;28;20117;-33
2024/01/20 12:14:49;;;;;;;26.60;16.63;;;2.60;99.90;;;;;;5081390;28;20055;-34
2024/01/20 12:17:15;;;;;;;28.45;16.15;;;2.60;99.90;;;;;;5090383;28;20051;-33
2024/01/20 12:19:41;;;;;;;25.75;15.63;;;2.60;99.90;;;;;;5092331;28;20040;-33
2024/01/20 12:22:07;;;;;;;26.38;15.07;;;2.70;99.90;;;;;;5088129;28;20110;-33
2024/01/20 12:24:34;;;;;;;29.42;16.77;;;2.70;99.90;;;;;;5084038;28;20051;-33
2024/01/20 12:27:04;;;;;;;25.85;15.43;;;2.70;99.90;;;;;;5082202;28;20037;-33